sensor_id;sensor_type;location;lat;lon;timestamp;pressure;altitude;pressure_sealevel;temperature;humidity
64292;BME280;50628;51.008;13.658;2022-08-11T00:05:06;100489.78;;;17.34;58.66
64292;BME280;50628;51.008;13.658;2022-08-11T00:10:11;100479.09;;;17.53;57.86
64292;BME280;50628;51.008;13.658;2022-08-11T00:15:13;100483.84;;;17.50;58.45
64292;BME280;50628;51.008;13.658;2022-08-11T00:20:15;100493.94;;;17.55;58.03
64292;BME280;50628;51.008;13.658;2022-08-11T00:25:20;100497.88;;;17.41;59.26
64292;BME280;50628;51.008;13.658;2022-08-11T00:30:22;100500.22;;;16.98;61.00
64292;BME280;50628;51.008;13.658;2022-08-11T00:35:27;100504.78;;;16.78;61.81
64292;BME280;50628;51.008;13.658;2022-08-11T00:40:43;100492.53;;;16.87;61.11
64292;BME280;50628;51.008;13.658;2022-08-11T00:46:07;100494.63;;;17.11;59.59
64292;BME280;50628;51.008;13.658;2022-08-11T00:51:15;100504.94;;;17.22;59.20
64292;BME280;50628;51.008;13.658;2022-08-11T01:02:11;100502.56;;;16.64;62.06
64292;BME280;50628;51.008;13.658;2022-08-11T01:07:58;100504.97;;;16.48;62.90
64292;BME280;50628;51.008;13.658;2022-08-11T01:13:14;100502.56;;;16.64;61.46
64292;BME280;50628;51.008;13.658;2022-08-11T01:18:54;100492.69;;;16.48;63.09
64292;BME280;50628;51.008;13.658;2022-08-11T01:24:34;100500.59;;;16.38;63.92
64292;BME280;50628;51.008;13.658;2022-08-11T01:30:06;100503.94;;;16.21;63.22
64292;BME280;50628;51.008;13.658;2022-08-11T01:35:26;100503.47;;;16.35;63.95
64292;BME280;50628;51.008;13.658;2022-08-11T01:40:58;100498.44;;;15.95;65.56
64292;BME280;50628;51.008;13.658;2022-08-11T01:46:14;100500.41;;;15.83;66.05
64292;BME280;50628;51.008;13.658;2022-08-11T01:51:30;100502.31;;;16.00;64.42
64292;BME280;50628;51.008;13.658;2022-08-11T01:56:45;100494.69;;;16.07;64.24
64292;BME280;50628;51.008;13.658;2022-08-11T02:07:24;100496.38;;;16.08;63.65
64292;BME280;50628;51.008;13.658;2022-08-11T02:12:40;100492.47;;;16.22;63.13
64292;BME280;50628;51.008;13.658;2022-08-11T02:17:56;100487.81;;;16.06;63.61
64292;BME280;50628;51.008;13.658;2022-08-11T02:23:03;100482.97;;;16.01;63.78
64292;BME280;50628;51.008;13.658;2022-08-11T02:28:34;100490.44;;;15.87;64.34
64292;BME280;50628;51.008;13.658;2022-08-11T02:33:40;100491.53;;;16.04;64.46
64292;BME280;50628;51.008;13.658;2022-08-11T02:38:48;100487.69;;;15.88;64.13
64292;BME280;50628;51.008;13.658;2022-08-11T02:44:04;100490.72;;;15.74;64.54
64292;BME280;50628;51.008;13.658;2022-08-11T02:49:13;100491.09;;;15.30;66.09
64292;BME280;50628;51.008;13.658;2022-08-11T02:54:44;100493.72;;;15.40;65.71
64292;BME280;50628;51.008;13.658;2022-08-11T02:59:58;100490.28;;;15.49;67.19
64292;BME280;50628;51.008;13.658;2022-08-11T03:05:06;100505.97;;;15.20;68.34
64292;BME280;50628;51.008;13.658;2022-08-11T03:10:20;100499.59;;;15.03;69.41
64292;BME280;50628;51.008;13.658;2022-08-11T03:15:27;100510.44;;;14.89;69.77
64292;BME280;50628;51.008;13.658;2022-08-11T03:20:52;100511.47;;;15.07;68.36
64292;BME280;50628;51.008;13.658;2022-08-11T03:26:02;100500.28;;;15.05;68.97
64292;BME280;50628;51.008;13.658;2022-08-11T03:31:17;100517.84;;;14.84;69.77
64292;BME280;50628;51.008;13.658;2022-08-11T03:36:35;100507.75;;;14.69;70.27
64292;BME280;50628;51.008;13.658;2022-08-11T03:41:51;100521.63;;;14.60;71.08
64292;BME280;50628;51.008;13.658;2022-08-11T03:47:17;100518.56;;;14.55;71.52
64292;BME280;50628;51.008;13.658;2022-08-11T03:52:47;100510.38;;;14.69;71.00
64292;BME280;50628;51.008;13.658;2022-08-11T03:58:35;100513.88;;;14.80;70.49
64292;BME280;50628;51.008;13.658;2022-08-11T04:04:02;100506.69;;;14.82;68.83
64292;BME280;50628;51.008;13.658;2022-08-11T04:09:46;100497.91;;;14.92;69.10
64292;BME280;50628;51.008;13.658;2022-08-11T04:15:22;100500.31;;;15.15;68.66
64292;BME280;50628;51.008;13.658;2022-08-11T04:26:36;100489.22;;;14.92;69.57
64292;BME280;50628;51.008;13.658;2022-08-11T04:32:00;100495.25;;;14.83;69.83
64292;BME280;50628;51.008;13.658;2022-08-11T04:37:11;100499.28;;;14.87;70.11
64292;BME280;50628;51.008;13.658;2022-08-11T04:54:22;100506.28;;;14.86;70.98
64292;BME280;50628;51.008;13.658;2022-08-11T05:00:03;100502.56;;;14.89;70.78
64292;BME280;50628;51.008;13.658;2022-08-11T05:05:35;100498.88;;;15.01;69.97
64292;BME280;50628;51.008;13.658;2022-08-11T05:11:02;100491.47;;;15.16;69.03
64292;BME280;50628;51.008;13.658;2022-08-11T05:16:09;100495.53;;;15.40;68.66
64292;BME280;50628;51.008;13.658;2022-08-11T05:21:31;100492.78;;;15.61;68.01
64292;BME280;50628;51.008;13.658;2022-08-11T05:26:52;100505.09;;;15.79;67.37
64292;BME280;50628;51.008;13.658;2022-08-11T05:32:15;100503.00;;;16.02;66.87
64292;BME280;50628;51.008;13.658;2022-08-11T05:37:41;100504.19;;;16.28;66.24
64292;BME280;50628;51.008;13.658;2022-08-11T05:43:05;100502.06;;;16.51;65.82
64292;BME280;50628;51.008;13.658;2022-08-11T05:48:32;100503.09;;;16.67;65.08
64292;BME280;50628;51.008;13.658;2022-08-11T05:53:55;100499.94;;;17.01;63.86
64292;BME280;50628;51.008;13.658;2022-08-11T05:59:17;100505.31;;;17.27;62.71
64292;BME280;50628;51.008;13.658;2022-08-11T06:04:22;100503.75;;;17.17;62.95
64292;BME280;50628;51.008;13.658;2022-08-11T06:09:31;100512.84;;;17.58;61.52
64292;BME280;50628;51.008;13.658;2022-08-11T06:14:40;100508.00;;;17.81;60.80
64292;BME280;50628;51.008;13.658;2022-08-11T06:19:46;100509.09;;;17.97;60.39
64292;BME280;50628;51.008;13.658;2022-08-11T06:24:55;100508.41;;;18.38;58.99
64292;BME280;50628;51.008;13.658;2022-08-11T06:29:58;100512.22;;;18.70;58.24
64292;BME280;50628;51.008;13.658;2022-08-11T06:35:09;100505.88;;;18.89;57.41
64292;BME280;50628;51.008;13.658;2022-08-11T06:40:24;100507.66;;;19.23;56.30
64292;BME280;50628;51.008;13.658;2022-08-11T06:45:32;100512.63;;;19.42;55.99
64292;BME280;50628;51.008;13.658;2022-08-11T06:50:37;100511.53;;;19.78;55.26
64292;BME280;50628;51.008;13.658;2022-08-11T06:55:58;100513.53;;;20.08;54.68
64292;BME280;50628;51.008;13.658;2022-08-11T07:01:27;100509.84;;;20.26;53.58
64292;BME280;50628;51.008;13.658;2022-08-11T07:06:53;100507.84;;;20.44;52.69
64292;BME280;50628;51.008;13.658;2022-08-11T07:12:39;100517.09;;;20.65;51.93
64292;BME280;50628;51.008;13.658;2022-08-11T07:18:02;100504.59;;;20.90;50.84
64292;BME280;50628;51.008;13.658;2022-08-11T07:23:23;100512.28;;;21.08;49.92
64292;BME280;50628;51.008;13.658;2022-08-11T07:28:46;100506.66;;;21.42;48.76
64292;BME280;50628;51.008;13.658;2022-08-11T07:34:07;100503.47;;;21.70;47.35
64292;BME280;50628;51.008;13.658;2022-08-11T07:39:16;100503.53;;;21.61;47.04
64292;BME280;50628;51.008;13.658;2022-08-11T07:44:22;100496.59;;;21.98;45.94
64292;BME280;50628;51.008;13.658;2022-08-11T07:49:32;100496.00;;;22.11;45.68
64292;BME280;50628;51.008;13.658;2022-08-11T07:54:57;100497.34;;;22.30;44.55
64292;BME280;50628;51.008;13.658;2022-08-11T08:00:01;100501.63;;;22.46;44.39
64292;BME280;50628;51.008;13.658;2022-08-11T08:05:21;100505.75;;;22.63;44.03
64292;BME280;50628;51.008;13.658;2022-08-11T08:10:40;100491.28;;;22.81;41.41
64292;BME280;50628;51.008;13.658;2022-08-11T08:16:01;100486.56;;;23.13;41.21
64292;BME280;50628;51.008;13.658;2022-08-11T08:21:21;100485.22;;;23.23;40.94
64292;BME280;50628;51.008;13.658;2022-08-11T08:26:23;100476.25;;;23.46;39.83
64292;BME280;50628;51.008;13.658;2022-08-11T08:31:47;100480.03;;;23.51;39.58
64292;BME280;50628;51.008;13.658;2022-08-11T08:36:50;100464.47;;;23.98;38.96
64292;BME280;50628;51.008;13.658;2022-08-11T08:41:55;100459.53;;;23.95;38.48
64292;BME280;50628;51.008;13.658;2022-08-11T08:46:59;100456.09;;;23.73;38.38
64292;BME280;50628;51.008;13.658;2022-08-11T08:52:03;100445.03;;;23.97;38.19
64292;BME280;50628;51.008;13.658;2022-08-11T08:57:08;100444.22;;;23.97;38.25
64292;BME280;50628;51.008;13.658;2022-08-11T09:02:12;100442.75;;;24.23;37.57
64292;BME280;50628;51.008;13.658;2022-08-11T09:07:16;100442.38;;;24.67;36.83
64292;BME280;50628;51.008;13.658;2022-08-11T09:12:19;100433.31;;;24.55;37.30
64292;BME280;50628;51.008;13.658;2022-08-11T09:17:25;100437.50;;;24.84;36.91
64292;BME280;50628;51.008;13.658;2022-08-11T09:22:29;100437.06;;;24.67;35.62
64292;BME280;50628;51.008;13.658;2022-08-11T09:27:50;100426.34;;;25.15;34.30
64292;BME280;50628;51.008;13.658;2022-08-11T09:32:56;100427.41;;;25.67;33.66
64292;BME280;50628;51.008;13.658;2022-08-11T09:38:00;100416.28;;;26.10;32.49
64292;BME280;50628;51.008;13.658;2022-08-11T09:43:19;100414.06;;;25.54;33.29
64292;BME280;50628;51.008;13.658;2022-08-11T09:48:43;100413.25;;;25.27;32.50
64292;BME280;50628;51.008;13.658;2022-08-11T09:53:45;100408.94;;;26.06;32.11
64292;BME280;50628;51.008;13.658;2022-08-11T09:58:47;100402.78;;;25.92;32.52
64292;BME280;50628;51.008;13.658;2022-08-11T10:03:53;100411.00;;;25.90;32.88
64292;BME280;50628;51.008;13.658;2022-08-11T10:09:01;100396.41;;;25.80;32.98
64292;BME280;50628;51.008;13.658;2022-08-11T10:14:06;100402.53;;;26.14;32.06
64292;BME280;50628;51.008;13.658;2022-08-11T10:19:30;100392.06;;;26.05;31.17
64292;BME280;50628;51.008;13.658;2022-08-11T10:24:33;100393.34;;;25.89;31.90
64292;BME280;50628;51.008;13.658;2022-08-11T10:29:54;100389.41;;;26.19;30.97
64292;BME280;50628;51.008;13.658;2022-08-11T10:35:15;100389.66;;;25.84;30.19
64292;BME280;50628;51.008;13.658;2022-08-11T10:40:20;100395.41;;;25.81;29.93
64292;BME280;50628;51.008;13.658;2022-08-11T10:45:23;100391.31;;;26.57;28.43
64292;BME280;50628;51.008;13.658;2022-08-11T10:50:46;100374.81;;;26.15;29.17
64292;BME280;50628;51.008;13.658;2022-08-11T10:56:06;100373.16;;;27.35;28.26
64292;BME280;50628;51.008;13.658;2022-08-11T11:01:29;100366.91;;;27.67;27.45
64292;BME280;50628;51.008;13.658;2022-08-11T11:06:36;100355.66;;;26.76;27.75
64292;BME280;50628;51.008;13.658;2022-08-11T11:11:58;100342.81;;;27.23;27.77
64292;BME280;50628;51.008;13.658;2022-08-11T11:17:24;100347.44;;;27.59;26.79
64292;BME280;50628;51.008;13.658;2022-08-11T11:22:47;100352.78;;;28.03;25.89
64292;BME280;50628;51.008;13.658;2022-08-11T11:27:59;100337.88;;;27.70;25.15
64292;BME280;50628;51.008;13.658;2022-08-11T11:33:12;100342.69;;;26.86;26.10
64292;BME280;50628;51.008;13.658;2022-08-11T11:38:19;100324.56;;;28.19;24.91
64292;BME280;50628;51.008;13.658;2022-08-11T11:43:21;100324.09;;;28.40;24.19
64292;BME280;50628;51.008;13.658;2022-08-11T11:48:23;100321.84;;;27.89;24.59
64292;BME280;50628;51.008;13.658;2022-08-11T11:53:29;100311.44;;;28.47;23.05
64292;BME280;50628;51.008;13.658;2022-08-11T11:58:31;100312.06;;;28.31;24.10
64292;BME280;50628;51.008;13.658;2022-08-11T12:03:52;100304.03;;;29.27;22.24
64292;BME280;50628;51.008;13.658;2022-08-11T12:08:57;100304.63;;;29.17;22.44
64292;BME280;50628;51.008;13.658;2022-08-11T12:14:02;100299.09;;;29.00;22.44
64292;BME280;50628;51.008;13.658;2022-08-11T12:19:08;100300.75;;;29.01;21.82
64292;BME280;50628;51.008;13.658;2022-08-11T12:24:12;100295.75;;;28.51;21.87
64292;BME280;50628;51.008;13.658;2022-08-11T12:29:32;100286.19;;;29.32;20.37
64292;BME280;50628;51.008;13.658;2022-08-11T12:34:35;100282.59;;;28.31;21.82
64292;BME280;50628;51.008;13.658;2022-08-11T12:39:41;100277.84;;;28.75;21.27
64292;BME280;50628;51.008;13.658;2022-08-11T12:45:03;100280.78;;;28.13;21.61
64292;BME280;50628;51.008;13.658;2022-08-11T12:50:28;100286.22;;;28.55;20.52
64292;BME280;50628;51.008;13.658;2022-08-11T12:55:50;100273.34;;;29.58;19.29
64292;BME280;50628;51.008;13.658;2022-08-11T13:01:11;100261.59;;;30.57;18.17
64292;BME280;50628;51.008;13.658;2022-08-11T13:06:31;100251.72;;;29.24;19.91
64292;BME280;50628;51.008;13.658;2022-08-11T13:11:35;100253.50;;;29.83;19.84
64292;BME280;50628;51.008;13.658;2022-08-11T13:16:57;100246.19;;;30.24;19.21
64292;BME280;50628;51.008;13.658;2022-08-11T13:22:19;100235.75;;;31.23;17.60
64292;BME280;50628;51.008;13.658;2022-08-11T13:27:24;100240.44;;;29.63;19.77
64292;BME280;50628;51.008;13.658;2022-08-11T13:32:26;100234.31;;;30.65;18.99
64292;BME280;50628;51.008;13.658;2022-08-11T13:37:29;100227.63;;;30.51;18.58
64292;BME280;50628;51.008;13.658;2022-08-11T13:42:32;100218.38;;;29.20;20.57
64292;BME280;50628;51.008;13.658;2022-08-11T13:47:36;100216.88;;;31.01;18.97
64292;BME280;50628;51.008;13.658;2022-08-11T13:52:39;100218.94;;;30.94;19.37
64292;BME280;50628;51.008;13.658;2022-08-11T13:57:43;100209.44;;;31.69;18.72
64292;BME280;50628;51.008;13.658;2022-08-11T14:02:47;100197.81;;;31.42;18.90
64292;BME280;50628;51.008;13.658;2022-08-11T14:07:52;100203.09;;;31.15;19.39
64292;BME280;50628;51.008;13.658;2022-08-11T14:12:59;100198.84;;;31.58;18.88
64292;BME280;50628;51.008;13.658;2022-08-11T14:18:25;100193.47;;;32.71;17.42
64292;BME280;50628;51.008;13.658;2022-08-11T14:23:31;100182.28;;;32.95;17.10
64292;BME280;50628;51.008;13.658;2022-08-11T14:28:37;100192.69;;;32.44;17.88
64292;BME280;50628;51.008;13.658;2022-08-11T14:33:41;100195.59;;;32.37;18.36
64292;BME280;50628;51.008;13.658;2022-08-11T14:38:44;100186.25;;;32.18;18.37
64292;BME280;50628;51.008;13.658;2022-08-11T14:43:48;100182.19;;;31.39;19.72
64292;BME280;50628;51.008;13.658;2022-08-11T14:49:08;100175.72;;;33.33;18.17
64292;BME280;50628;51.008;13.658;2022-08-11T14:54:11;100176.63;;;32.54;18.72
64292;BME280;50628;51.008;13.658;2022-08-11T14:59:32;100168.47;;;30.46;20.96
64292;BME280;50628;51.008;13.658;2022-08-11T15:04:34;100176.66;;;30.39;20.73
64292;BME280;50628;51.008;13.658;2022-08-11T15:09:36;100167.28;;;31.31;19.66
64292;BME280;50628;51.008;13.658;2022-08-11T15:14:44;100162.88;;;32.55;18.18
64292;BME280;50628;51.008;13.658;2022-08-11T15:20:07;100162.16;;;32.70;18.26
64292;BME280;50628;51.008;13.658;2022-08-11T15:25:28;100150.47;;;32.22;18.99
64292;BME280;50628;51.008;13.658;2022-08-11T15:30:35;100149.06;;;32.15;19.30
64292;BME280;50628;51.008;13.658;2022-08-11T15:35:59;100151.47;;;31.84;19.10
64292;BME280;50628;51.008;13.658;2022-08-11T15:41:22;100154.63;;;30.88;20.12
64292;BME280;50628;51.008;13.658;2022-08-11T15:46:49;100154.84;;;31.25;19.70
64292;BME280;50628;51.008;13.658;2022-08-11T15:51:56;100157.34;;;29.91;21.05
64292;BME280;50628;51.008;13.658;2022-08-11T15:57:01;100151.50;;;28.90;22.53
64292;BME280;50628;51.008;13.658;2022-08-11T16:02:08;100151.16;;;28.51;22.51
64292;BME280;50628;51.008;13.658;2022-08-11T16:07:29;100147.66;;;28.51;22.79
64292;BME280;50628;51.008;13.658;2022-08-11T16:12:37;100152.28;;;28.43;23.44
64292;BME280;50628;51.008;13.658;2022-08-11T16:17:46;100144.75;;;27.98;23.63
64292;BME280;50628;51.008;13.658;2022-08-11T16:22:51;100141.34;;;28.45;23.44
64292;BME280;50628;51.008;13.658;2022-08-11T16:27:57;100133.66;;;28.25;23.72
64292;BME280;50628;51.008;13.658;2022-08-11T16:33:02;100127.53;;;28.48;23.00
64292;BME280;50628;51.008;13.658;2022-08-11T16:38:06;100128.66;;;27.38;24.13
64292;BME280;50628;51.008;13.658;2022-08-11T16:43:28;100117.19;;;27.98;23.94
64292;BME280;50628;51.008;13.658;2022-08-11T16:48:50;100132.69;;;28.08;24.05
64292;BME280;50628;51.008;13.658;2022-08-11T16:53:53;100129.03;;;28.02;23.63
64292;BME280;50628;51.008;13.658;2022-08-11T16:58:56;100129.75;;;27.97;24.15
64292;BME280;50628;51.008;13.658;2022-08-11T17:04:23;100131.75;;;27.53;24.84
64292;BME280;50628;51.008;13.658;2022-08-11T17:09:46;100130.88;;;27.71;24.54
64292;BME280;50628;51.008;13.658;2022-08-11T17:15:10;100137.34;;;27.52;25.22
64292;BME280;50628;51.008;13.658;2022-08-11T17:20:29;100122.63;;;27.06;25.50
64292;BME280;50628;51.008;13.658;2022-08-11T17:25:31;100138.56;;;27.49;25.51
64292;BME280;50628;51.008;13.658;2022-08-11T17:30:34;100138.00;;;27.10;25.92
64292;BME280;50628;51.008;13.658;2022-08-11T17:35:56;100135.78;;;27.26;25.96
64292;BME280;50628;51.008;13.658;2022-08-11T17:41:00;100137.19;;;26.91;26.56
64292;BME280;50628;51.008;13.658;2022-08-11T17:46:20;100136.94;;;26.93;26.47
64292;BME280;50628;51.008;13.658;2022-08-11T17:51:43;100143.19;;;26.87;26.57
64292;BME280;50628;51.008;13.658;2022-08-11T17:57:03;100143.69;;;26.77;27.26
64292;BME280;50628;51.008;13.658;2022-08-11T18:02:26;100149.88;;;26.46;27.32
64292;BME280;50628;51.008;13.658;2022-08-11T18:07:50;100151.13;;;26.43;27.42
64292;BME280;50628;51.008;13.658;2022-08-11T18:13:11;100152.91;;;26.56;26.94
64292;BME280;50628;51.008;13.658;2022-08-11T18:18:31;100158.88;;;26.51;27.86
64292;BME280;50628;51.008;13.658;2022-08-11T18:23:52;100164.75;;;26.35;27.77
64292;BME280;50628;51.008;13.658;2022-08-11T18:29:13;100160.75;;;26.19;28.18
64292;BME280;50628;51.008;13.658;2022-08-11T18:34:36;100169.56;;;25.81;28.71
64292;BME280;50628;51.008;13.658;2022-08-11T18:40:06;100173.56;;;25.65;29.78
64292;BME280;50628;51.008;13.658;2022-08-11T18:45:26;100177.16;;;25.33;30.40
64292;BME280;50628;51.008;13.658;2022-08-11T18:50:46;100184.78;;;25.02;31.02
64292;BME280;50628;51.008;13.658;2022-08-11T18:56:06;100185.41;;;24.78;32.21
64292;BME280;50628;51.008;13.658;2022-08-11T19:01:26;100179.28;;;24.57;32.45
64292;BME280;50628;51.008;13.658;2022-08-11T19:06:47;100186.44;;;24.50;32.38
64292;BME280;50628;51.008;13.658;2022-08-11T19:12:10;100175.13;;;24.28;32.92
64292;BME280;50628;51.008;13.658;2022-08-11T19:17:32;100177.78;;;24.15;33.04
64292;BME280;50628;51.008;13.658;2022-08-11T19:22:54;100168.56;;;24.04;33.01
64292;BME280;50628;51.008;13.658;2022-08-11T19:28:17;100179.00;;;24.12;32.84
64292;BME280;50628;51.008;13.658;2022-08-11T19:33:38;100176.75;;;24.23;32.96
64292;BME280;50628;51.008;13.658;2022-08-11T19:38:59;100183.75;;;24.37;32.02
64292;BME280;50628;51.008;13.658;2022-08-11T19:44:23;100185.91;;;24.00;33.26
64292;BME280;50628;51.008;13.658;2022-08-11T19:49:44;100181.00;;;23.49;34.61
64292;BME280;50628;51.008;13.658;2022-08-11T19:55:05;100191.59;;;23.07;35.66
64292;BME280;50628;51.008;13.658;2022-08-11T20:00:27;100197.03;;;23.27;35.43
64292;BME280;50628;51.008;13.658;2022-08-11T20:05:47;100203.91;;;22.65;36.78
64292;BME280;50628;51.008;13.658;2022-08-11T20:11:06;100205.63;;;22.73;36.93
64292;BME280;50628;51.008;13.658;2022-08-11T20:16:28;100214.00;;;22.55;37.52
64292;BME280;50628;51.008;13.658;2022-08-11T20:21:48;100215.41;;;22.15;38.07
64292;BME280;50628;51.008;13.658;2022-08-11T20:27:08;100223.47;;;21.85;38.81
64292;BME280;50628;51.008;13.658;2022-08-11T20:32:30;100210.03;;;21.57;39.70
64292;BME280;50628;51.008;13.658;2022-08-11T20:37:49;100210.34;;;21.47;39.30
64292;BME280;50628;51.008;13.658;2022-08-11T20:43:13;100218.69;;;21.21;39.89
64292;BME280;50628;51.008;13.658;2022-08-11T20:48:35;100226.78;;;21.05;40.36
64292;BME280;50628;51.008;13.658;2022-08-11T20:53:55;100218.41;;;20.78;40.99
64292;BME280;50628;51.008;13.658;2022-08-11T20:59:19;100223.34;;;20.81;40.99
64292;BME280;50628;51.008;13.658;2022-08-11T21:04:40;100230.47;;;20.81;41.21
64292;BME280;50628;51.008;13.658;2022-08-11T21:10:00;100235.03;;;20.72;41.91
64292;BME280;50628;51.008;13.658;2022-08-11T21:15:22;100228.78;;;20.65;41.99
64292;BME280;50628;51.008;13.658;2022-08-11T21:20:45;100231.78;;;20.62;42.36
64292;BME280;50628;51.008;13.658;2022-08-11T21:26:06;100236.69;;;20.42;42.67
64292;BME280;50628;51.008;13.658;2022-08-11T21:31:28;100237.44;;;20.27;42.76
64292;BME280;50628;51.008;13.658;2022-08-11T21:36:50;100243.94;;;20.17;42.96
64292;BME280;50628;51.008;13.658;2022-08-11T21:42:10;100247.16;;;19.96;43.56
64292;BME280;50628;51.008;13.658;2022-08-11T21:47:31;100249.03;;;19.87;43.90
64292;BME280;50628;51.008;13.658;2022-08-11T21:52:54;100248.28;;;19.62;44.59
64292;BME280;50628;51.008;13.658;2022-08-11T21:58:14;100258.38;;;19.50;45.05
64292;BME280;50628;51.008;13.658;2022-08-11T22:03:34;100252.63;;;19.30;45.76
64292;BME280;50628;51.008;13.658;2022-08-11T22:08:55;100258.91;;;19.29;45.73
64292;BME280;50628;51.008;13.658;2022-08-11T22:14:14;100255.63;;;19.27;45.87
64292;BME280;50628;51.008;13.658;2022-08-11T22:19:35;100248.06;;;19.16;46.65
64292;BME280;50628;51.008;13.658;2022-08-11T22:24:57;100247.41;;;18.89;47.76
64292;BME280;50628;51.008;13.658;2022-08-11T22:30:17;100253.16;;;18.68;47.89
64292;BME280;50628;51.008;13.658;2022-08-11T22:35:37;100250.81;;;18.57;48.05
64292;BME280;50628;51.008;13.658;2022-08-11T22:40:58;100254.44;;;18.56;48.49
64292;BME280;50628;51.008;13.658;2022-08-11T22:46:18;100254.59;;;18.46;48.96
64292;BME280;50628;51.008;13.658;2022-08-11T22:51:40;100256.06;;;18.32;49.38
64292;BME280;50628;51.008;13.658;2022-08-11T22:57:03;100258.47;;;18.09;50.87
64292;BME280;50628;51.008;13.658;2022-08-11T23:02:26;100264.53;;;18.02;51.06
64292;BME280;50628;51.008;13.658;2022-08-11T23:07:46;100264.66;;;17.92;50.92
64292;BME280;50628;51.008;13.658;2022-08-11T23:13:08;100251.06;;;17.79;51.30
64292;BME280;50628;51.008;13.658;2022-08-11T23:18:27;100261.69;;;17.87;51.23
64292;BME280;50628;51.008;13.658;2022-08-11T23:23:48;100265.53;;;17.74;51.65
64292;BME280;50628;51.008;13.658;2022-08-11T23:29:09;100257.88;;;17.55;52.65
64292;BME280;50628;51.008;13.658;2022-08-11T23:34:34;100258.78;;;17.46;52.90
64292;BME280;50628;51.008;13.658;2022-08-11T23:39:54;100269.16;;;17.47;52.54
64292;BME280;50628;51.008;13.658;2022-08-11T23:45:15;100257.25;;;17.35;52.84
64292;BME280;50628;51.008;13.658;2022-08-11T23:50:35;100263.06;;;17.21;53.96
64292;BME280;50628;51.008;13.658;2022-08-11T23:55:54;100249.88;;;17.39;53.31
